createdAt,value
2023-04-11T04:54:03.527Z,51.074455
2023-04-11T04:55:03.394Z,51.074467
2023-04-11T04:56:03.403Z,51.074474
2023-04-11T04:57:03.407Z,51.074520
2023-04-11T04:58:03.365Z,51.074543
2023-04-11T04:59:03.425Z,51.074562
2023-04-11T05:00:03.477Z,51.074574
2023-04-11T05:01:03.400Z,51.074505
2023-04-11T05:02:03.644Z,51.074493
2023-04-11T05:03:03.500Z,51.074520
2023-04-11T05:04:03.563Z,51.074493
2023-04-11T05:05:03.358Z,51.074440
2023-04-11T05:06:03.382Z,51.074478
2023-04-11T05:07:03.369Z,51.074493
2023-04-11T05:08:03.325Z,51.074551
2023-04-11T05:09:03.400Z,51.074528
2023-04-11T05:10:03.322Z,51.074478
2023-04-11T05:11:03.313Z,51.074532
2023-04-11T05:12:03.964Z,51.074539
2023-04-11T05:13:03.407Z,51.074474
2023-04-11T05:14:03.280Z,51.074490
2023-04-11T05:15:03.322Z,51.074432
2023-04-11T05:16:03.288Z,51.074497
2023-04-11T05:17:03.356Z,51.074467
2023-04-11T05:18:03.391Z,51.074520
2023-04-11T05:19:03.274Z,51.074501
2023-04-11T05:20:03.231Z,51.074474
2023-04-11T05:21:03.239Z,51.074474
2023-04-11T05:22:03.257Z,51.074417
2023-04-11T05:23:03.235Z,51.074402
2023-04-11T05:24:03.222Z,51.074490
2023-04-11T05:25:03.192Z,51.074471
2023-04-11T05:26:03.200Z,51.074493
2023-04-11T05:27:03.224Z,51.074493
2023-04-11T05:28:03.228Z,51.074501
2023-04-11T05:29:03.159Z,51.074471
2023-04-11T05:30:03.156Z,51.074459
2023-04-11T05:31:03.217Z,51.074444
2023-04-11T05:32:03.161Z,51.074467
2023-04-11T05:33:03.215Z,51.074490
2023-04-11T05:34:03.170Z,51.074467
2023-04-11T05:35:03.127Z,51.074463
2023-04-11T05:36:03.154Z,51.074463
2023-04-11T05:37:03.138Z,51.074501
2023-04-11T05:38:03.089Z,51.074497
2023-04-11T05:39:03.107Z,51.074486
2023-04-11T05:40:03.100Z,51.074463
2023-04-11T05:41:03.100Z,51.074478
2023-04-11T05:42:03.167Z,51.074478
2023-04-11T05:43:03.089Z,51.074455
2023-04-11T05:44:03.093Z,51.074455
2023-04-11T05:45:03.113Z,51.074429
2023-04-11T05:46:03.065Z,51.074539
2023-04-11T05:47:03.104Z,51.074451
2023-04-11T05:48:03.162Z,51.074432
2023-04-11T05:49:03.040Z,51.074432
2023-04-11T05:50:03.031Z,51.074444
2023-04-11T05:51:03.064Z,51.074421
2023-04-11T05:52:03.054Z,51.074417
2023-04-11T05:53:03.016Z,51.074409
2023-04-11T05:54:03.108Z,51.074417
2023-04-11T05:55:02.977Z,51.074451
2023-04-11T05:56:03.028Z,51.074451
2023-04-11T05:57:03.037Z,51.074448
2023-04-11T05:58:02.966Z,51.074482
2023-04-11T05:59:02.994Z,51.074509
2023-04-11T06:00:03.034Z,51.074490
2023-04-11T06:01:02.950Z,51.074501
2023-04-11T06:02:03.010Z,51.074509
2023-04-11T06:03:03.008Z,51.074471
2023-04-11T06:04:03.258Z,51.074455
2023-04-11T06:05:02.977Z,51.074471
2023-04-11T06:06:02.896Z,51.074474
2023-04-11T06:07:03.026Z,51.074471
2023-04-11T06:08:02.964Z,51.074471
2023-04-11T06:09:02.937Z,51.074509
2023-04-11T06:10:02.984Z,51.074444
2023-04-11T06:11:02.926Z,51.074398
2023-04-11T06:12:02.914Z,51.074425
2023-04-11T06:13:02.890Z,51.074455
2023-04-11T06:14:02.879Z,51.074501
2023-04-11T06:15:02.862Z,51.074505
2023-04-11T06:16:03.866Z,51.074451
2023-04-11T06:17:02.935Z,51.074501
2023-04-11T06:18:02.840Z,51.074478
2023-04-11T06:19:02.826Z,51.074451
2023-04-11T06:20:04.778Z,51.074463
2023-04-11T06:21:02.979Z,51.074444
2023-04-11T06:22:02.850Z,51.074512
2023-04-11T06:23:02.798Z,51.074532
2023-04-11T06:24:02.796Z,51.074509
2023-04-11T06:25:02.769Z,51.074448
2023-04-11T06:26:02.808Z,51.074429
2023-04-11T06:27:02.756Z,51.074440
2023-04-11T06:28:02.825Z,51.074448
2023-04-11T06:29:02.780Z,51.074444
2023-04-11T06:30:02.764Z,51.074451
2023-04-11T06:31:02.776Z,51.074509
2023-04-11T06:32:02.725Z,51.074432
2023-04-11T06:33:02.744Z,51.074497
2023-04-11T06:34:02.729Z,51.074474
2023-04-11T06:35:02.719Z,51.074432
2023-04-11T06:36:05.609Z,51.074455
2023-04-11T06:37:02.747Z,51.074471
2023-04-11T06:38:02.737Z,51.074459
2023-04-11T06:39:02.692Z,51.074471
2023-04-11T06:40:02.707Z,51.074474
2023-04-11T06:41:02.682Z,51.074451
2023-04-11T06:42:02.657Z,51.074482
2023-04-11T06:43:02.689Z,51.074486
2023-04-11T06:44:02.683Z,51.074505
2023-04-11T06:45:02.636Z,51.074471
2023-04-11T06:46:02.698Z,51.074451
2023-04-11T06:47:02.642Z,51.074467
2023-04-11T06:48:03.403Z,51.074387
2023-04-11T06:49:02.644Z,51.074394
2023-04-11T06:50:02.589Z,51.074429
2023-04-11T06:51:02.618Z,51.074451
2023-04-11T06:52:02.622Z,51.074425
2023-04-11T06:53:02.635Z,51.074436
2023-04-11T06:54:02.575Z,51.074467
2023-04-11T06:55:02.560Z,51.074459
2023-04-11T06:56:02.555Z,51.074448
2023-04-11T06:57:02.580Z,51.074432
2023-04-11T06:58:02.560Z,51.074471
2023-04-11T06:59:02.554Z,51.074417
2023-04-11T07:00:02.567Z,51.074398
2023-04-11T07:01:02.549Z,51.074398
2023-04-11T07:02:02.696Z,51.074429
2023-04-11T07:03:02.799Z,51.074474
2023-04-11T07:04:02.802Z,51.074474
2023-04-11T07:05:02.594Z,51.074459
2023-04-11T07:06:02.493Z,51.074474
2023-04-11T07:07:02.491Z,51.074478
2023-04-11T07:08:02.547Z,51.074440
2023-04-11T07:09:02.479Z,51.074402
2023-04-11T07:10:02.496Z,51.074394
2023-04-11T07:11:02.474Z,51.074390
2023-04-11T07:12:02.494Z,51.074417
2023-04-11T07:13:02.483Z,51.074413
2023-04-11T07:14:02.499Z,51.074413
2023-04-11T07:15:02.462Z,51.074425
2023-04-11T07:16:02.439Z,51.074429
2023-04-11T07:17:02.456Z,51.074402
2023-04-11T07:18:02.465Z,51.074413
2023-04-11T07:19:02.434Z,51.074429
2023-04-11T07:20:02.478Z,51.074451
2023-04-11T07:21:02.390Z,51.074455
2023-04-11T07:22:02.420Z,51.074486
2023-04-11T07:23:02.422Z,51.074448
2023-04-11T07:24:02.376Z,51.074406
2023-04-11T07:25:02.367Z,51.074417
2023-04-11T07:26:02.385Z,51.074432
2023-04-11T07:27:02.487Z,51.074429
2023-04-11T07:28:02.340Z,51.074432
2023-04-11T07:29:02.308Z,51.074345
2023-04-11T07:30:02.295Z,51.074341
2023-04-11T07:31:02.349Z,51.074398
2023-04-11T07:32:02.485Z,51.074413
2023-04-11T07:33:02.517Z,51.074387
2023-04-11T07:34:02.364Z,51.074383
2023-04-11T07:35:02.281Z,51.074444
2023-04-11T07:36:02.317Z,51.074474
2023-04-11T07:37:02.460Z,51.074432
2023-04-11T07:38:02.331Z,51.074421
2023-04-11T07:39:02.393Z,51.074448
2023-04-11T07:40:02.291Z,51.074398
2023-04-11T07:41:02.243Z,51.074379
2023-04-11T07:42:02.233Z,51.074375
2023-04-11T07:43:03.785Z,51.074287
2023-04-11T07:44:02.210Z,51.074341
2023-04-11T07:45:02.204Z,51.074432
2023-04-11T07:46:02.282Z,51.074417
2023-04-11T07:47:02.184Z,51.074444
2023-04-11T07:48:02.293Z,51.074436
2023-04-11T07:49:02.180Z,51.074409
2023-04-11T07:50:02.172Z,51.074409
2023-04-11T07:51:02.179Z,51.074429
2023-04-11T07:52:02.131Z,51.074429
2023-04-11T07:53:02.196Z,51.074406
2023-04-11T07:54:02.131Z,51.074398
2023-04-11T07:55:02.130Z,51.074436
2023-04-11T07:56:02.245Z,51.074425
2023-04-11T07:57:02.158Z,51.074406
2023-04-11T07:58:02.213Z,51.074482
2023-04-11T07:59:02.167Z,51.074455
2023-04-11T08:00:02.297Z,51.074432
2023-04-11T08:01:02.254Z,51.074444
2023-04-11T08:02:02.248Z,51.074474
2023-04-11T08:03:02.339Z,51.074432
2023-04-11T08:04:02.399Z,51.074448
2023-04-11T08:05:02.417Z,51.074455
2023-04-11T08:06:02.057Z,51.074451
2023-04-11T08:07:02.076Z,51.074478
2023-04-11T08:08:02.065Z,51.074467
2023-04-11T08:09:02.049Z,51.074444
2023-04-11T08:10:02.105Z,51.074440
2023-04-11T08:11:02.067Z,51.074436
2023-04-11T08:12:02.095Z,51.074436
2023-04-11T08:13:01.992Z,51.074440
2023-04-11T08:14:01.989Z,51.074455
2023-04-11T08:15:01.991Z,51.074471
2023-04-11T08:16:01.988Z,51.074463
2023-04-11T08:17:02.087Z,51.074471
2023-04-11T08:18:02.051Z,51.074467
2023-04-11T08:19:01.944Z,51.074463
2023-04-11T08:20:02.370Z,51.074474
2023-04-11T08:21:02.998Z,51.074471
2023-04-11T08:22:01.961Z,51.074467
2023-04-11T08:23:03.064Z,51.074471
2023-04-11T08:24:01.926Z,51.074509
2023-04-11T08:25:01.919Z,51.074451
2023-04-11T08:26:01.973Z,51.074486
2023-04-11T08:27:01.943Z,51.074486
2023-04-11T08:28:01.895Z,51.074448
2023-04-11T08:29:02.816Z,51.074463
2023-04-11T08:30:01.899Z,51.074520
2023-04-11T08:31:01.963Z,51.074478
2023-04-11T08:32:01.856Z,51.074471
2023-04-11T08:33:02.142Z,51.074478
2023-04-11T08:34:03.178Z,51.074493
2023-04-11T08:35:01.872Z,51.074451
2023-04-11T08:36:01.875Z,51.074486
2023-04-11T08:37:01.837Z,51.074448
2023-04-11T08:38:01.826Z,51.074425
2023-04-11T08:39:01.836Z,51.074493
2023-04-11T08:40:01.816Z,51.074482
2023-04-11T08:41:01.810Z,51.074459
2023-04-11T08:42:01.825Z,51.074436
2023-04-11T08:43:01.850Z,51.074467
2023-04-11T08:44:01.781Z,51.074444
2023-04-11T08:45:01.910Z,51.074451
2023-04-11T08:46:01.842Z,51.074505
2023-04-11T08:47:01.759Z,51.074463
2023-04-11T08:48:01.799Z,51.074398
2023-04-11T08:49:01.747Z,51.074436
2023-04-11T08:50:01.775Z,51.074474
2023-04-11T08:51:01.747Z,51.074455
2023-04-11T08:52:01.720Z,51.074486
2023-04-11T08:53:01.727Z,51.074490
2023-04-11T08:54:01.735Z,51.074471
2023-04-11T08:55:01.760Z,51.074459
2023-04-11T08:56:01.823Z,51.074444
2023-04-11T08:57:01.701Z,51.074463
2023-04-11T08:58:01.674Z,51.074471
2023-04-11T08:59:02.277Z,51.074486
2023-04-11T09:00:01.692Z,51.074493
2023-04-11T09:01:01.699Z,51.074459
2023-04-11T09:02:01.786Z,51.074482
2023-04-11T09:03:01.763Z,51.074467
2023-04-11T09:04:01.673Z,51.074451
2023-04-11T09:05:01.662Z,51.074471
2023-04-11T09:06:01.637Z,51.074448
2023-04-11T09:07:01.681Z,51.074444
2023-04-11T09:08:02.196Z,51.074402
2023-04-11T09:09:02.331Z,51.074432
2023-04-11T09:10:01.704Z,51.074409
2023-04-11T09:11:01.603Z,51.074402
2023-04-11T09:12:01.589Z,51.074425
2023-04-11T09:13:01.565Z,51.074451
2023-04-11T09:14:01.641Z,51.074440
2023-04-11T09:15:01.562Z,51.074432
2023-04-11T09:16:01.702Z,51.074402
2023-04-11T09:17:01.584Z,51.074402
2023-04-11T09:18:01.662Z,51.074436
2023-04-11T09:19:01.566Z,51.074394
2023-04-11T09:20:01.643Z,51.074417
2023-04-11T09:21:01.545Z,51.074432
2023-04-11T09:22:01.527Z,51.074459
2023-04-11T09:23:01.553Z,51.074478
2023-04-11T09:24:01.504Z,51.074444
2023-04-11T09:25:01.534Z,51.074451
2023-04-11T09:26:01.520Z,51.074482
2023-04-11T09:27:01.533Z,51.074463
2023-04-11T09:28:01.489Z,51.074459
2023-04-11T09:29:01.492Z,51.074486
2023-04-11T09:30:01.466Z,51.074478
2023-04-11T09:31:01.573Z,51.074501
2023-04-11T09:32:01.470Z,51.074501
2023-04-11T09:33:01.493Z,51.074474
2023-04-11T09:34:01.463Z,51.074505
2023-04-11T09:35:01.475Z,51.074471
2023-04-11T09:36:01.566Z,51.074471
2023-04-11T09:37:01.423Z,51.074471
2023-04-11T09:38:01.434Z,51.074463
2023-04-11T09:39:02.289Z,51.074482
2023-04-11T09:40:01.458Z,51.074474
2023-04-11T09:41:01.381Z,51.074497
2023-04-11T09:42:01.415Z,51.074474
2023-04-11T09:43:01.413Z,51.074444
2023-04-11T09:44:01.385Z,51.074474
2023-04-11T09:45:01.382Z,51.074421
2023-04-11T09:46:01.405Z,51.074402
2023-04-11T09:47:01.484Z,51.074463
2023-04-11T09:48:01.403Z,51.074448
2023-04-11T09:49:02.662Z,51.074429
2023-04-11T09:50:01.332Z,51.074467
2023-04-11T09:51:01.382Z,51.074493
2023-04-11T09:52:01.313Z,51.074528
2023-04-11T09:53:01.327Z,51.074493
2023-04-11T09:54:01.332Z,51.074547
2023-04-11T09:55:01.369Z,51.074486
2023-04-11T09:56:01.303Z,51.074444
2023-04-11T09:57:01.312Z,51.074467
2023-04-11T09:58:01.799Z,51.074554
2023-04-11T09:59:01.272Z,51.074520
2023-04-11T10:00:01.266Z,51.074482
2023-04-11T10:01:01.301Z,51.074547
2023-04-11T10:02:01.867Z,51.074520
2023-04-11T10:03:01.361Z,51.074532
2023-04-11T10:04:01.620Z,51.074532
2023-04-11T10:05:01.312Z,51.074551
2023-04-11T10:06:01.246Z,51.074505
2023-04-11T10:07:01.207Z,51.074455
2023-04-11T10:08:01.200Z,51.074467
2023-04-11T10:09:01.219Z,51.074516
2023-04-11T10:10:01.206Z,51.074490
2023-04-11T10:11:01.220Z,51.074482
2023-04-11T10:12:01.181Z,51.074448
2023-04-11T10:13:01.182Z,51.074474
2023-04-11T10:14:01.173Z,51.074535
2023-04-11T10:15:01.177Z,51.074512
2023-04-11T10:16:01.171Z,51.074429
2023-04-11T10:17:01.139Z,51.074421
2023-04-11T10:18:01.193Z,51.074471
2023-04-11T10:19:01.136Z,51.074547
2023-04-11T10:20:02.138Z,51.074520
2023-04-11T10:21:01.124Z,51.074501
2023-04-11T10:22:01.112Z,51.074459
2023-04-11T10:23:01.132Z,51.074478
2023-04-11T10:24:01.096Z,51.074524
2023-04-11T10:25:01.106Z,51.074512
2023-04-11T10:26:01.153Z,51.074486
2023-04-11T10:27:01.084Z,51.074486
2023-04-11T10:28:01.310Z,51.074467
2023-04-11T10:29:01.051Z,51.074512
2023-04-11T10:30:01.040Z,51.074486
2023-04-11T10:31:01.073Z,51.074505
2023-04-11T10:32:01.044Z,51.074593
2023-04-11T10:33:01.093Z,51.074532
2023-04-11T10:34:01.065Z,51.074520
2023-04-11T10:35:01.020Z,51.074524
2023-04-11T10:36:01.088Z,51.074474
2023-04-11T10:37:01.025Z,51.074512
2023-04-11T10:38:00.995Z,51.074528
2023-04-11T10:39:01.013Z,51.074528
2023-04-11T10:40:01.003Z,51.074490
2023-04-11T10:41:00.986Z,51.074493
2023-04-11T10:42:00.997Z,51.074512
2023-04-11T10:43:00.945Z,51.074497
2023-04-11T10:44:00.956Z,51.074478
2023-04-11T10:45:00.965Z,51.074524
2023-04-11T10:46:00.974Z,51.074478
2023-04-11T10:47:01.813Z,51.074535
2023-04-11T10:48:01.053Z,51.074463
2023-04-11T10:49:00.922Z,51.074459
2023-04-11T10:50:00.893Z,51.074505
2023-04-11T10:51:00.918Z,51.074497
2023-04-11T10:52:00.890Z,51.074486
2023-04-11T10:53:00.890Z,51.074486
2023-04-11T10:54:01.250Z,51.074490
2023-04-11T10:55:01.826Z,51.074478
2023-04-11T10:56:00.886Z,51.074478
2023-04-11T10:57:00.907Z,51.074486
2023-04-11T10:58:00.911Z,51.074486
2023-04-11T10:59:00.857Z,51.074471
2023-04-11T11:00:00.897Z,51.074448
2023-04-11T11:01:00.895Z,51.074425
2023-04-11T11:02:00.905Z,51.074490
2023-04-11T11:03:00.913Z,51.074497
2023-04-11T11:04:01.085Z,51.074501
2023-04-11T11:05:00.874Z,51.074490
2023-04-11T11:06:00.812Z,51.074455
2023-04-11T11:07:00.797Z,51.074482
2023-04-11T11:08:00.798Z,51.074505
2023-04-11T11:09:00.790Z,51.074455
2023-04-11T11:10:00.830Z,51.074459
2023-04-11T11:11:00.772Z,51.074493
2023-04-11T11:12:00.773Z,51.074493
2023-04-11T11:13:00.739Z,51.074482
2023-04-11T11:14:01.748Z,51.074478
2023-04-11T11:15:00.750Z,51.074524
2023-04-11T11:16:00.770Z,51.074448
2023-04-11T11:17:00.803Z,51.074467
2023-04-11T11:18:00.768Z,51.074482
2023-04-11T11:19:00.703Z,51.074512
2023-04-11T11:20:00.699Z,51.074520
2023-04-11T11:21:00.702Z,51.074558
2023-04-11T11:22:00.717Z,51.074482
2023-04-11T11:23:00.689Z,51.074501
2023-04-11T11:24:00.692Z,51.074509
2023-04-11T11:25:00.656Z,51.074425
2023-04-11T11:26:00.671Z,51.074432
2023-04-11T11:27:00.659Z,51.074486
2023-04-11T11:28:00.656Z,51.074478
2023-04-11T11:29:00.627Z,51.074497
2023-04-11T11:30:00.639Z,51.074482
2023-04-11T11:31:00.645Z,51.074497
2023-04-11T11:32:00.640Z,51.074516
2023-04-11T11:33:00.696Z,51.074501
2023-04-11T11:34:21.390Z,51.074535
2023-04-11T11:35:02.598Z,51.074459
2023-04-11T11:36:00.651Z,51.074505
2023-04-11T11:37:00.675Z,51.074505
2023-04-11T11:38:00.558Z,51.074505
2023-04-11T11:39:00.570Z,51.074448
2023-04-11T11:40:00.570Z,51.074463
2023-04-11T11:41:00.604Z,51.074478
2023-04-11T11:42:00.610Z,51.074516
2023-04-11T11:43:00.581Z,51.074490
2023-04-11T11:44:00.572Z,51.074528
2023-04-11T11:45:00.570Z,51.074574
2023-04-11T11:46:00.585Z,51.074528
2023-04-11T11:47:00.526Z,51.074516
2023-04-11T11:48:00.564Z,51.074535
2023-04-11T11:49:00.859Z,51.074497
2023-04-11T11:50:01.197Z,51.074493
2023-04-11T11:51:00.479Z,51.074516
2023-04-11T11:52:00.471Z,51.074501
2023-04-11T11:53:00.467Z,51.074474
2023-04-11T11:54:00.463Z,51.074490
2023-04-11T11:55:00.462Z,51.074471
2023-04-11T11:56:00.527Z,51.074455
2023-04-11T11:57:00.475Z,51.074440
2023-04-11T11:58:00.441Z,51.074413
2023-04-11T11:59:00.525Z,51.074448
2023-04-11T12:00:00.416Z,51.074455
2023-04-11T12:01:00.430Z,51.074455
2023-04-11T12:02:00.447Z,51.074463
2023-04-11T12:03:00.593Z,51.074417
2023-04-11T12:04:00.741Z,51.074421
2023-04-11T12:05:00.715Z,51.074459
2023-04-11T12:06:00.414Z,51.074444
2023-04-11T12:07:00.357Z,51.074448
2023-04-11T12:08:00.364Z,51.074421
2023-04-11T12:09:00.356Z,51.074455
2023-04-11T12:10:00.347Z,51.074448
2023-04-11T12:11:00.344Z,51.074421
2023-04-11T12:12:00.316Z,51.074440
2023-04-11T12:13:00.325Z,51.074451
2023-04-11T12:14:00.319Z,51.074459
2023-04-11T12:15:00.300Z,51.074482
2023-04-11T12:16:00.367Z,51.074425
2023-04-11T12:17:00.310Z,51.074406
2023-04-11T12:18:00.316Z,51.074413
2023-04-11T12:19:00.275Z,51.074444
2023-04-11T12:20:00.260Z,51.074451
2023-04-11T12:21:00.275Z,51.074417
2023-04-11T12:22:00.272Z,51.074421
2023-04-11T12:23:00.247Z,51.074417
2023-04-11T12:24:00.253Z,51.074451
2023-04-11T12:25:00.226Z,51.074448
2023-04-11T12:26:00.251Z,51.074413
2023-04-11T12:27:06.961Z,51.074398
2023-04-11T12:28:02.230Z,51.074390
2023-04-11T12:29:00.199Z,51.074390
2023-04-11T12:30:00.199Z,51.074425
2023-04-11T12:31:00.233Z,51.074421
2023-04-11T12:32:00.313Z,51.074429
2023-04-11T12:33:00.241Z,51.074440
2023-04-11T12:34:00.191Z,51.074429
2023-04-11T12:35:00.215Z,51.074409
2023-04-11T12:36:00.158Z,51.074501
2023-04-11T12:37:00.245Z,51.074444
2023-04-11T12:38:00.159Z,51.074440
2023-04-11T12:39:00.124Z,51.074436
2023-04-11T12:40:00.204Z,51.074520
2023-04-11T12:41:19.738Z,51.074448
2023-04-11T12:42:02.145Z,51.074413
2023-04-11T12:43:00.145Z,51.074417
2023-04-11T12:44:00.134Z,51.074413
2023-04-11T12:45:00.124Z,51.074455
2023-04-11T12:46:00.107Z,51.074463
2023-04-11T12:47:00.218Z,51.074402
2023-04-11T12:48:00.139Z,51.074383
2023-04-11T12:49:00.123Z,51.074398
2023-04-11T12:50:00.088Z,51.074455
2023-04-11T12:51:00.054Z,51.074451
2023-04-11T12:52:00.049Z,51.074440
2023-04-11T12:53:00.090Z,51.074490
2023-04-11T12:54:00.034Z,51.074501
2023-04-11T12:55:00.020Z,51.074493
2023-04-11T12:56:00.114Z,51.074436
2023-04-11T12:57:00.035Z,51.074444
2023-04-11T12:58:00.000Z,51.074474
2023-04-11T12:59:00.144Z,51.074478
2023-04-11T13:00:00.035Z,51.074432
2023-04-11T13:01:00.059Z,51.074463
2023-04-11T13:02:00.083Z,51.074478
2023-04-11T13:03:00.140Z,51.074451
2023-04-11T13:04:00.183Z,51.074467
2023-04-11T13:05:00.060Z,51.074448
2023-04-11T13:06:00.835Z,51.074490
2023-04-11T13:06:59.990Z,51.074482
2023-04-11T13:07:59.972Z,51.074409
2023-04-11T13:08:59.942Z,51.074413
2023-04-11T13:09:59.962Z,51.074448
2023-04-11T13:10:59.997Z,51.074486
2023-04-11T13:12:00.228Z,51.074451
2023-04-11T13:13:08.483Z,51.074505
2023-04-11T13:14:02.042Z,51.074490
2023-04-11T13:14:59.981Z,51.074497
2023-04-11T13:16:00.087Z,51.074558
2023-04-11T13:16:59.987Z,51.074493
2023-04-11T13:18:00.134Z,51.074448
2023-04-11T13:18:59.987Z,51.074432
2023-04-11T13:19:59.946Z,51.074478
2023-04-11T13:21:00.042Z,51.074497
2023-04-11T13:21:59.937Z,51.074451
2023-04-11T13:22:59.856Z,51.074451
2023-04-11T13:23:59.863Z,51.074451
2023-04-11T13:24:59.938Z,51.074459
2023-04-11T13:25:59.843Z,51.074478
2023-04-11T13:26:59.840Z,51.074471
2023-04-11T13:27:59.819Z,51.074448
2023-04-11T13:29:00.332Z,51.074402
2023-04-11T13:29:59.817Z,51.074436
2023-04-11T13:30:59.798Z,51.074436
2023-04-11T13:31:59.891Z,51.074429
2023-04-11T13:32:59.791Z,51.074467
2023-04-11T13:33:59.917Z,51.074478
2023-04-11T13:34:59.782Z,51.074490
2023-04-11T13:35:59.734Z,51.074467
2023-04-11T13:36:59.836Z,51.074474
2023-04-11T13:37:59.797Z,51.074490
2023-04-11T13:38:59.807Z,51.074486
2023-04-11T13:39:59.749Z,51.074474
2023-04-11T13:40:59.715Z,51.074455
2023-04-11T13:41:59.758Z,51.074436
2023-04-11T13:42:59.699Z,51.074432
2023-04-11T13:43:59.740Z,51.074455
2023-04-11T13:44:59.693Z,51.074432
2023-04-11T13:45:59.744Z,51.074406
2023-04-11T13:46:59.727Z,51.074463
2023-04-11T13:47:59.706Z,51.074421
2023-04-11T13:48:59.670Z,51.074448
2023-04-11T13:49:59.659Z,51.074463
2023-04-11T13:50:59.657Z,51.074455
2023-04-11T13:51:59.652Z,51.074440
2023-04-11T13:52:59.700Z,51.074478
2023-04-11T13:53:59.623Z,51.074528
2023-04-11T13:54:59.669Z,51.074467
2023-04-11T13:55:59.708Z,51.074448
2023-04-11T13:56:59.614Z,51.074413
2023-04-11T13:57:59.578Z,51.074409
2023-04-11T13:58:59.626Z,51.074417
2023-04-11T13:59:59.583Z,51.074471
2023-04-11T14:00:59.663Z,51.074478
2023-04-11T14:01:59.646Z,51.074497
2023-04-11T14:02:59.791Z,51.074486
2023-04-11T14:03:59.731Z,51.074532
2023-04-11T14:04:59.586Z,51.074406
2023-04-11T14:05:59.660Z,51.074509
2023-04-11T14:06:59.555Z,51.074532
2023-04-11T14:07:59.530Z,51.074509
2023-04-11T14:08:59.515Z,51.074520
2023-04-11T14:09:59.532Z,51.074497
2023-04-11T14:10:59.513Z,51.074501
2023-04-11T14:11:59.521Z,51.074448
2023-04-11T14:12:59.534Z,51.074451
2023-04-11T14:13:59.506Z,51.074467
2023-04-11T14:14:59.492Z,51.074451
2023-04-11T14:16:07.974Z,51.074493
2023-04-11T14:17:01.580Z,51.074482
2023-04-11T14:17:59.555Z,51.074524
2023-04-11T14:18:59.512Z,51.074501
2023-04-11T14:19:59.448Z,51.074524
2023-04-11T14:20:59.447Z,51.074512
2023-04-11T14:21:59.533Z,51.074478
2023-04-11T14:22:59.424Z,51.074493
2023-04-11T14:23:59.576Z,51.074505
2023-04-11T14:24:59.423Z,51.074509
2023-04-11T14:25:59.423Z,51.074520
2023-04-11T14:26:59.407Z,51.074497
2023-04-11T14:27:59.428Z,51.074482
2023-04-11T14:28:59.461Z,51.074486
2023-04-11T14:29:59.394Z,51.074482
2023-04-11T14:30:59.470Z,51.074482
2023-04-11T14:31:59.401Z,51.074486
2023-04-11T14:32:59.437Z,51.074509
2023-04-11T14:33:59.505Z,51.074516
2023-04-11T14:35:00.061Z,51.074490
2023-04-11T14:35:59.335Z,51.074467
2023-04-11T14:36:59.360Z,51.074482
2023-04-11T14:37:59.366Z,51.074471
2023-04-11T14:38:59.323Z,51.074478
2023-04-11T14:40:00.354Z,51.074497
2023-04-11T14:40:59.335Z,51.074497
2023-04-11T14:41:59.328Z,51.074501
2023-04-11T14:43:00.314Z,51.074490
2023-04-11T14:43:59.325Z,51.074490
2023-04-11T14:44:59.493Z,51.074524
2023-04-11T14:45:59.297Z,51.074482
2023-04-11T14:46:59.301Z,51.074486
2023-04-11T14:47:59.267Z,51.074501
2023-04-11T14:48:59.264Z,51.074539
2023-04-11T14:49:59.353Z,51.074505
2023-04-11T14:50:59.837Z,51.074535
2023-04-11T14:51:59.250Z,51.074516
2023-04-11T14:52:59.228Z,51.074493
2023-04-11T14:53:59.406Z,51.074493
2023-04-11T14:54:59.210Z,51.074497
2023-04-11T14:55:59.233Z,51.074474
2023-04-11T14:56:59.186Z,51.074482
2023-04-11T14:57:59.184Z,51.074436
2023-04-11T14:58:59.168Z,51.074459
2023-04-11T14:59:59.162Z,51.074478
2023-04-11T15:00:59.178Z,51.074459
2023-04-11T15:01:59.223Z,51.074478
2023-04-11T15:02:59.230Z,51.074501
2023-04-11T15:03:59.310Z,51.074497
2023-04-11T15:04:59.205Z,51.074490
2023-04-11T15:05:59.100Z,51.074486
2023-04-11T15:06:59.187Z,51.074486
2023-04-11T15:07:59.107Z,51.074482
2023-04-11T15:08:59.121Z,51.074486
2023-04-11T15:09:59.130Z,51.074478
2023-04-11T15:10:59.533Z,51.074467
2023-04-11T15:11:59.168Z,51.074516
2023-04-11T15:12:59.131Z,51.074520
2023-04-11T15:13:59.108Z,51.074505
2023-04-11T15:14:59.049Z,51.074501
2023-04-11T15:15:59.068Z,51.074471
2023-04-11T15:16:59.027Z,51.074497
2023-04-11T15:18:00.170Z,51.074497
2023-04-11T15:18:59.016Z,51.074497
2023-04-11T15:19:59.019Z,51.074478
2023-04-11T15:20:59.059Z,51.074497
2023-04-11T15:21:59.084Z,51.074482
2023-04-11T15:22:58.988Z,51.074493
2023-04-11T15:23:59.045Z,51.074486
2023-04-11T15:24:58.996Z,51.074459
2023-04-11T15:25:59.969Z,51.074478
2023-04-11T15:26:58.981Z,51.074482
2023-04-11T15:27:58.963Z,51.074516
2023-04-11T15:28:58.982Z,51.074478
2023-04-11T15:29:58.956Z,51.074486
2023-04-11T15:30:58.998Z,51.074471
2023-04-11T15:31:58.947Z,51.074467
2023-04-11T15:32:59.008Z,51.074471
2023-04-11T15:33:59.049Z,51.074497
2023-04-11T15:34:58.902Z,51.074486
2023-04-11T15:36:00.128Z,51.074497
2023-04-11T15:36:58.926Z,51.074482
2023-04-11T15:37:58.889Z,51.074463
2023-04-11T15:38:58.893Z,51.074451
2023-04-11T15:39:58.896Z,51.074467
2023-04-11T15:40:58.876Z,51.074455
2023-04-11T15:41:58.866Z,51.074459
2023-04-11T15:42:58.838Z,51.074444
2023-04-11T15:43:58.902Z,51.074486
2023-04-11T15:44:58.829Z,51.074463
2023-04-11T15:45:58.818Z,51.074471
2023-04-11T15:46:58.930Z,51.074478
2023-04-11T15:47:58.807Z,51.074463
2023-04-11T15:48:58.809Z,51.074455
2023-04-11T15:49:58.836Z,51.074471
2023-04-11T15:50:58.785Z,51.074432
2023-04-11T15:51:58.801Z,51.074425
2023-04-11T15:52:58.765Z,51.074455
2023-04-11T15:53:59.794Z,51.074429
2023-04-11T15:54:58.770Z,51.074402
2023-04-11T15:55:58.774Z,51.074425
2023-04-11T15:56:58.745Z,51.074493
2023-04-11T15:57:58.738Z,51.074463
2023-04-11T15:58:58.733Z,51.074451
2023-04-11T15:59:58.736Z,51.074455
2023-04-11T16:00:58.752Z,51.074471
2023-04-11T16:01:58.879Z,51.074471
2023-04-11T16:02:58.867Z,51.074440
2023-04-11T16:03:59.269Z,51.074478
2023-04-11T16:04:58.810Z,51.074562
2023-04-11T16:05:58.699Z,51.074520
2023-04-11T16:06:58.707Z,51.074493
2023-04-11T16:07:59.344Z,51.074547
2023-04-11T16:08:58.686Z,51.074478
2023-04-11T16:09:58.667Z,51.074448
2023-04-11T16:10:58.675Z,51.074516
2023-04-11T16:11:58.669Z,51.074501
2023-04-11T16:12:58.629Z,51.074535
2023-04-11T16:13:58.713Z,51.074577
2023-04-11T16:14:58.632Z,51.074532
2023-04-11T16:15:58.651Z,51.074505
2023-04-11T16:16:58.639Z,51.074547
2023-04-11T16:17:58.681Z,51.074505